Time;durP1;ratioP1;P1;durP2;ratioP2;P2;SDS_P1;SDS_P2;PMS_P1;PMS_P2;Temp;Humidity;BMP_temperature;BMP_pressure;BME280_temperature;BME280_humidity;BME280_pressure;Samples;Min_cycle;Max_cycle;Signal;HPM_P1;HPM_P2
2022/08/24 00:00:17;;;;;;;4.95;4.22;;;;;;;;;;10278077;28;20124;-79
2022/08/24 00:05:20;;;;;;;5.95;4.30;;;;;;;;;;10284583;28;20027;-76
2022/08/24 00:10:21;;;;;;;4.95;3.95;;;;;;;;;;10250347;28;20046;-81
2022/08/24 00:15:21;;;;;;;5.70;4.35;;;;;;;;;;10236743;28;20514;-81
2022/08/24 00:20:23;;;;;;;4.93;4.20;;;;;;;;;;10250316;28;20079;-77
2022/08/24 00:25:23;;;;;;;4.78;4.28;;;;;;;;;;10282248;28;20094;-76
2022/08/24 00:30:24;;;;;;;4.67;4.27;;;;;;;;;;10274810;28;20391;-78
2022/08/24 00:35:25;;;;;;;5.43;4.55;;;;;;;;;;10236169;28;20113;-75
2022/08/24 00:40:32;;;;;;;4.82;4.32;;;;;;;;;;10207307;28;20046;-75
2022/08/24 00:45:35;;;;;;;4.93;4.47;;;;;;;;;;10232754;28;20134;-74
2022/08/24 00:50:38;;;;;;;4.95;3.95;;;;;;;;;;10232310;28;20047;-74
2022/08/24 00:55:42;;;;;;;5.60;5.00;;;;;;;;;;10235142;28;20039;-76
2022/08/24 01:00:45;;;;;;;6.80;5.47;;;;;;;;;;10215903;28;20155;-74
2022/08/24 01:05:47;;;;;;;5.88;4.35;;;;;;;;;;10225390;28;20427;-76
2022/08/24 01:10:50;;;;;;;5.20;4.50;;;;;;;;;;10221980;28;20054;-74
2022/08/24 01:15:52;;;;;;;5.53;4.90;;;;;;;;;;10233262;28;20098;-76
2022/08/24 01:20:57;;;;;;;5.77;5.17;;;;;;;;;;10225939;29;20047;-75
2022/08/24 01:25:59;;;;;;;5.40;4.90;;;;;;;;;;10225720;28;20121;-76
2022/08/24 01:30:59;;;;;;;5.82;4.75;;;;;;;;;;10210062;28;20055;-76
2022/08/24 01:36:04;;;;;;;5.55;5.05;;;;;;;;;;10230409;28;20492;-75
2022/08/24 01:41:05;;;;;;;5.57;5.10;;;;;;;;;;10219180;28;20039;-76
2022/08/24 01:46:05;;;;;;;4.82;4.43;;;;;;;;;;10215624;28;20786;-75
2022/08/24 01:51:06;;;;;;;5.60;5.03;;;;;;;;;;10218792;29;20035;-75
2022/08/24 01:56:06;;;;;;;5.22;4.72;;;;;;;;;;10224553;28;20039;-74
2022/08/24 02:01:08;;;;;;;7.50;5.53;;;;;;;;;;10218169;29;20718;-74
2022/08/24 02:06:09;;;;;;;5.53;5.00;;;;;;;;;;10219162;28;20074;-74
2022/08/24 02:11:11;;;;;;;5.93;5.07;;;;;;;;;;10222969;28;20058;-75
2022/08/24 02:16:14;;;;;;;5.35;4.85;;;;;;;;;;10220148;28;20488;-73
2022/08/24 02:21:15;;;;;;;5.82;5.15;;;;;;;;;;10232911;28;20039;-73
2022/08/24 02:26:16;;;;;;;5.32;4.82;;;;;;;;;;10226272;28;20473;-74
2022/08/24 02:31:18;;;;;;;6.00;4.97;;;;;;;;;;10223974;28;20035;-75
2022/08/24 02:36:19;;;;;;;5.28;4.78;;;;;;;;;;10235260;28;20137;-80
2022/08/24 02:41:23;;;;;;;6.07;5.47;;;;;;;;;;10232757;28;20050;-74
2022/08/24 02:46:26;;;;;;;6.40;5.78;;;;;;;;;;10238320;28;20184;-74
2022/08/24 02:51:26;;;;;;;;;;;;;;;;;;10222918;28;20440;-73
2022/08/24 02:56:30;;;;;;;5.70;5.00;;;;;;;;;;10226727;29;19918;-74
2022/08/24 03:01:31;;;;;;;6.78;5.78;;;;;;;;;;10237758;28;20052;-74
2022/08/24 03:06:32;;;;;;;6.13;5.60;;;;;;;;;;10242680;28;20181;-71
2022/08/24 03:11:33;;;;;;;7.40;6.70;;;;;;;;;;10234063;28;20047;-73
2022/08/24 03:16:33;;;;;;;7.68;6.43;;;;;;;;;;10235491;28;20118;-78
2022/08/24 03:21:34;;;;;;;7.10;6.43;;;;;;;;;;10219613;28;20087;-76
2022/08/24 03:26:35;;;;;;;6.22;5.68;;;;;;;;;;10215814;29;20440;-75
2022/08/24 03:31:36;;;;;;;7.25;6.20;;;;;;;;;;10227916;29;20834;-72
2022/08/24 03:36:36;;;;;;;9.05;7.05;;;;;;;;;;10233076;28;20058;-74
2022/08/24 03:41:37;;;;;;;7.68;6.95;;;;;;;;;;10238045;28;20407;-74
2022/08/24 03:46:38;;;;;;;7.68;6.85;;;;;;;;;;10227660;28;20063;-74
2022/08/24 03:51:39;;;;;;;7.68;6.82;;;;;;;;;;10240006;28;20050;-73
2022/08/24 03:56:42;;;;;;;7.10;6.40;;;;;;;;;;10226281;28;20047;-73
2022/08/24 04:01:42;;;;;;;7.30;6.45;;;;;;;;;;10216961;28;20083;-73
2022/08/24 04:06:45;;;;;;;7.40;6.70;;;;;;;;;;10244306;28;20039;-75
2022/08/24 04:11:46;;;;;;;;;;;;;;;;;;10222324;28;20512;-72
2022/08/24 04:16:46;;;;;;;9.25;6.93;;;;;;;;;;10208902;28;19921;-75
2022/08/24 04:21:56;;;;;;;8.55;6.85;;;;;;;;;;10218197;28;20098;-74
2022/08/24 04:26:56;;;;;;;7.63;6.37;;;;;;;;;;10211488;28;20063;-76
2022/08/24 04:31:58;;;;;;;7.45;6.68;;;;;;;;;;10225589;28;20047;-73
2022/08/24 04:37:00;;;;;;;7.50;6.75;;;;;;;;;;10218946;28;20455;-76
2022/08/24 04:42:02;;;;;;;8.25;7.45;;;;;;;;;;10216361;28;20046;-76
2022/08/24 04:47:05;;;;;;;8.85;7.55;;;;;;;;;;10223096;28;20066;-74
2022/08/24 04:52:07;;;;;;;8.23;7.43;;;;;;;;;;10218940;28;20039;-78
2022/08/24 04:57:08;;;;;;;8.20;7.40;;;;;;;;;;10219646;29;20047;-77
2022/08/24 05:02:09;;;;;;;8.20;7.40;;;;;;;;;;10236499;28;20561;-77
2022/08/24 05:07:11;;;;;;;9.30;8.07;;;;;;;;;;10209510;29;20097;-77
2022/08/24 05:12:14;;;;;;;9.70;7.50;;;;;;;;;;10221543;28;20047;-77
2022/08/24 05:17:25;;;;;;;8.38;7.47;;;;;;;;;;10218722;29;20089;-80
2022/08/24 05:22:26;;;;;;;7.95;7.15;;;;;;;;;;10223796;28;20097;-80
2022/08/24 05:27:28;;;;;;;8.90;7.53;;;;;;;;;;10228498;28;20043;-78
2022/08/24 05:32:28;;;;;;;15.02;11.73;;;;;;;;;;10228808;28;20035;-74
2022/08/24 05:37:29;;;;;;;15.32;13.60;;;;;;;;;;10220284;28;20526;-75
2022/08/24 05:42:47;;;;;;;20.88;14.02;;;;;;;;;;10208339;28;20042;-76
2022/08/24 05:47:48;;;;;;;22.23;16.48;;;;;;;;;;10237547;29;20059;-76
2022/08/24 05:53:12;;;;;;;21.38;15.60;;;;;;;;;;10202416;29;20054;-77
2022/08/24 05:58:13;;;;;;;18.38;13.25;;;;;;;;;;10237347;28;20082;-75
2022/08/24 06:03:15;;;;;;;17.08;13.85;;;;;;;;;;10229036;28;20138;-77
2022/08/24 06:08:21;;;;;;;16.95;12.45;;;;;;;;;;10231819;29;20086;-77
2022/08/24 06:13:22;;;;;;;21.23;16.92;;;;;;;;;;10216363;28;20122;-80
2022/08/24 06:18:23;;;;;;;13.02;11.02;;;;;;;;;;10226126;29;20126;-83
2022/08/24 06:23:24;;;;;;;12.68;10.75;;;;;;;;;;10231017;28;20059;-80
2022/08/24 06:28:32;;;;;;;11.02;8.88;;;;;;;;;;10220429;28;20039;-80
2022/08/24 06:33:33;;;;;;;8.95;7.95;;;;;;;;;;10216218;28;20039;-82
2022/08/24 06:38:35;;;;;;;9.43;7.33;;;;;;;;;;10203690;28;20035;-79
2022/08/24 06:43:37;;;;;;;7.88;7.07;;;;;;;;;;10235943;28;20058;-83
2022/08/24 06:48:44;;;;;;;7.32;6.60;;;;;;;;;;10216621;28;20069;-80
2022/08/24 06:53:45;;;;;;;7.75;6.68;;;;;;;;;;10214172;28;20043;-78
2022/08/24 06:58:46;;;;;;;8.95;7.15;;;;;;;;;;10233922;28;20081;-77
2022/08/24 07:03:52;;;;;;;9.10;7.90;;;;;;;;;;10229368;28;20535;-73
2022/08/24 07:09:30;;;;;;;9.45;7.30;;;;;;;;;;10228573;28;20039;-75
2022/08/24 07:14:30;;;;;;;10.35;8.10;;;;;;;;;;10216206;28;20107;-76
2022/08/24 07:19:32;;;;;;;10.68;9.40;;;;;;;;;;10230991;28;20067;-77
2022/08/24 07:24:34;;;;;;;12.13;8.90;;;;;;;;;;10226553;28;20054;-72
2022/08/24 07:29:34;;;;;;;10.40;8.80;;;;;;;;;;10243439;28;20035;-73
2022/08/24 07:34:36;;;;;;;10.98;8.57;;;;;;;;;;10252901;28;20048;-77
2022/08/24 07:39:37;;;;;;;9.27;7.68;;;;;;;;;;10220386;29;20047;-73
2022/08/24 07:44:38;;;;;;;6.72;6.13;;;;;;;;;;10227783;28;20051;-73
2022/08/24 07:49:39;;;;;;;9.73;7.45;;;;;;;;;;10231774;29;20035;-80
2022/08/24 07:54:40;;;;;;;7.82;5.97;;;;;;;;;;10225024;28;20047;-76
2022/08/24 07:59:41;;;;;;;7.90;6.40;;;;;;;;;;10226326;29;20085;-74
2022/08/24 08:04:42;;;;;;;7.97;6.80;;;;;;;;;;10240097;28;20135;-75
2022/08/24 08:09:43;;;;;;;9.00;7.15;;;;;;;;;;10221419;28;20047;-74
2022/08/24 08:14:45;;;;;;;7.00;5.95;;;;;;;;;;10230434;28;20046;-74
2022/08/24 08:19:45;;;;;;;8.30;5.53;;;;;;;;;;10220509;28;20039;-75
2022/08/24 08:24:46;;;;;;;8.27;6.75;;;;;;;;;;10240813;28;20043;-75
2022/08/24 08:29:47;;;;;;;8.65;5.47;;;;;;;;;;10225537;28;20467;-73
2022/08/24 08:34:48;;;;;;;6.33;4.97;;;;;;;;;;10205616;28;20046;-76
2022/08/24 08:39:49;;;;;;;6.03;5.32;;;;;;;;;;10240226;28;20050;-73
2022/08/24 08:45:08;;;;;;;6.07;5.45;;;;;;;;;;10221703;28;20055;-74
2022/08/24 08:50:16;;;;;;;5.50;4.97;;;;;;;;;;10223150;28;20156;-74
2022/08/24 08:55:18;;;;;;;6.82;5.15;;;;;;;;;;10225342;28;20043;-78
2022/08/24 09:00:21;;;;;;;5.23;4.80;;;;;;;;;;10246622;28;20043;-73
2022/08/24 09:05:39;;;;;;;7.13;4.68;;;;;;;;;;10223786;28;20313;-73
2022/08/24 09:10:49;;;;;;;6.90;4.72;;;;;;;;;;10221204;29;20615;-74
2022/08/24 09:15:53;;;;;;;5.57;5.07;;;;;;;;;;10233550;28;20038;-72
2022/08/24 09:21:07;;;;;;;4.82;3.83;;;;;;;;;;10221649;28;20130;-75
2022/08/24 09:26:08;;;;;;;;;;;;;;;;;;10229520;28;20043;-73
2022/08/24 09:31:23;;;;;;;4.60;4.20;;;;;;;;;;10212186;28;19918;-73
2022/08/24 09:36:36;;;;;;;4.25;3.88;;;;;;;;;;10230593;28;20039;-76
2022/08/24 09:41:40;;;;;;;5.00;3.85;;;;;;;;;;10236615;28;20422;-81
2022/08/24 09:46:52;;;;;;;4.53;3.65;;;;;;;;;;10237051;28;20386;-75
2022/08/24 09:52:11;;;;;;;4.00;3.38;;;;;;;;;;10250799;28;20037;-75
2022/08/24 09:57:24;;;;;;;4.30;3.90;;;;;;;;;;10250076;28;20036;-75
2022/08/24 10:02:24;;;;;;;;;;;;;;;;;;10238900;28;20059;-74
2022/08/24 10:07:32;;;;;;;3.27;3.00;;;;;;;;;;10235662;28;19918;-77
2022/08/24 10:12:42;;;;;;;3.80;3.15;;;;;;;;;;10236083;28;20054;-75
2022/08/24 10:17:42;;;;;;;3.45;3.15;;;;;;;;;;10231792;28;20374;-80
2022/08/24 10:22:46;;;;;;;3.72;3.28;;;;;;;;;;10237724;28;20055;-77
2022/08/24 10:28:04;;;;;;;2.85;2.65;;;;;;;;;;10237929;28;20053;-77
2022/08/24 10:33:13;;;;;;;3.85;3.15;;;;;;;;;;10231232;28;20130;-76
2022/08/24 10:44:18;;;;;;;3.05;2.80;;;;;;;;;;10236101;28;20451;-73
2022/08/24 10:49:18;;;;;;;3.63;3.30;;;;;;;;;;10246883;28;20035;-75
2022/08/24 10:54:19;;;;;;;3.40;3.10;;;;;;;;;;10217092;29;20039;-75
2022/08/24 10:59:24;;;;;;;3.03;2.63;;;;;;;;;;10238898;28;20497;-81
2022/08/24 11:04:27;;;;;;;3.20;2.90;;;;;;;;;;10227678;28;20086;-74
2022/08/24 11:09:42;;;;;;;3.20;2.80;;;;;;;;;;10240723;28;20035;-77
2022/08/24 11:14:46;;;;;;;3.53;2.80;;;;;;;;;;10238691;28;20066;-74
2022/08/24 11:19:47;;;;;;;3.75;3.35;;;;;;;;;;10237921;28;20115;-76
2022/08/24 11:24:51;;;;;;;8.33;3.70;;;;;;;;;;10237849;28;20557;-75
2022/08/24 11:29:51;;;;;;;3.95;3.17;;;;;;;;;;10218898;28;20569;-74
2022/08/24 11:34:52;;;;;;;3.60;3.10;;;;;;;;;;10223010;28;20066;-76
2022/08/24 11:39:52;;;;;;;3.50;3.17;;;;;;;;;;10236004;28;20423;-76
2022/08/24 11:45:05;;;;;;;3.30;3.00;;;;;;;;;;10235851;28;20129;-77
2022/08/24 11:50:05;;;;;;;3.40;2.88;;;;;;;;;;10210444;28;20097;-74
2022/08/24 11:55:11;;;;;;;3.20;2.90;;;;;;;;;;10241482;28;20043;-75
2022/08/24 12:00:17;;;;;;;3.95;3.13;;;;;;;;;;10239250;28;20372;-73
2022/08/24 12:05:19;;;;;;;5.40;3.25;;;;;;;;;;10239369;28;20043;-78
2022/08/24 12:10:25;;;;;;;4.47;3.20;;;;;;;;;;10236930;29;20090;-73
2022/08/24 12:15:47;;;;;;;5.22;3.20;;;;;;;;;;10239201;28;20050;-74
2022/08/24 12:20:48;;;;;;;3.57;3.27;;;;;;;;;;10236981;28;20043;-75
2022/08/24 12:26:04;;;;;;;3.57;3.23;;;;;;;;;;10238629;28;20043;-78
2022/08/24 12:31:08;;;;;;;4.03;3.40;;;;;;;;;;10239743;28;20067;-74
2022/08/24 12:36:35;;;;;;;4.15;3.63;;;;;;;;;;10241685;28;20521;-75
2022/08/24 12:41:42;;;;;;;4.40;3.00;;;;;;;;;;10230651;28;20047;-74
2022/08/24 12:46:50;;;;;;;3.30;3.00;;;;;;;;;;10246036;28;20157;-75
2022/08/24 12:51:54;;;;;;;4.97;4.13;;;;;;;;;;10240338;28;20114;-76
2022/08/24 12:57:03;;;;;;;4.03;3.53;;;;;;;;;;10247301;28;20453;-75
2022/08/24 13:02:03;;;;;;;4.20;3.40;;;;;;;;;;10240740;28;20490;-78
2022/08/24 13:07:06;;;;;;;3.73;3.40;;;;;;;;;;10220154;28;20102;-75
2022/08/24 13:12:25;;;;;;;3.92;3.47;;;;;;;;;;10239558;28;20038;-76
2022/08/24 13:17:38;;;;;;;3.80;3.42;;;;;;;;;;10228982;28;20101;-74
2022/08/24 13:22:45;;;;;;;4.72;3.88;;;;;;;;;;10209421;29;20047;-76
2022/08/24 13:27:48;;;;;;;4.13;3.72;;;;;;;;;;10239537;28;20114;-75
2022/08/24 13:32:56;;;;;;;5.88;4.20;;;;;;;;;;10235731;28;20380;-74
2022/08/24 13:38:23;;;;;;;4.80;4.15;;;;;;;;;;10235552;28;20368;-73
2022/08/24 13:43:38;;;;;;;5.13;3.78;;;;;;;;;;10206648;28;20107;-73
2022/08/24 13:48:47;;;;;;;5.55;4.00;;;;;;;;;;10234816;28;20185;-75
2022/08/24 13:53:57;;;;;;;4.07;3.67;;;;;;;;;;10222848;28;20106;-74
2022/08/24 13:59:07;;;;;;;4.40;3.15;;;;;;;;;;10233395;28;20498;-74
2022/08/24 14:04:14;;;;;;;4.47;3.53;;;;;;;;;;10212470;29;20046;-74
2022/08/24 14:09:50;;;;;;;4.90;4.03;;;;;;;;;;10243540;28;20094;-74
2022/08/24 14:14:53;;;;;;;6.15;3.83;;;;;;;;;;10146737;28;20047;-74
2022/08/24 14:20:07;;;;;;;4.47;3.90;;;;;;;;;;10238981;28;20807;-73
2022/08/24 14:25:15;;;;;;;4.15;3.72;;;;;;;;;;10241781;28;20058;-72
2022/08/24 14:30:17;;;;;;;4.55;3.60;;;;;;;;;;10217476;28;20050;-74
2022/08/24 14:35:17;;;;;;;;;;;;;;;;;;10242568;28;20028;-72
2022/08/24 14:40:28;;;;;;;5.23;3.70;;;;;;;;;;10211033;28;19918;-73
2022/08/24 14:45:32;;;;;;;4.93;4.20;;;;;;;;;;10238642;28;20126;-72
2022/08/24 14:50:41;;;;;;;4.25;3.83;;;;;;;;;;10244085;28;20062;-74
2022/08/24 14:56:04;;;;;;;5.40;4.25;;;;;;;;;;10238423;28;20050;-71
2022/08/24 15:01:13;;;;;;;4.35;4.00;;;;;;;;;;10243788;28;20529;-73
2022/08/24 15:06:29;;;;;;;4.68;4.20;;;;;;;;;;10238656;28;20054;-73
2022/08/24 15:11:30;;;;;;;4.45;4.05;;;;;;;;;;10243209;28;20047;-73
2022/08/24 15:16:51;;;;;;;4.68;4.20;;;;;;;;;;10237258;28;20475;-75
2022/08/24 15:21:55;;;;;;;5.05;4.38;;;;;;;;;;10210875;29;20165;-72
2022/08/24 15:26:59;;;;;;;4.60;4.20;;;;;;;;;;10234479;29;20039;-73
2022/08/24 15:32:07;;;;;;;5.53;4.45;;;;;;;;;;10233065;28;20043;-72
2022/08/24 15:37:08;;;;;;;7.30;6.00;;;;;;;;;;10219702;29;20058;-76
2022/08/24 15:42:12;;;;;;;4.95;4.50;;;;;;;;;;10224883;28;20043;-72
2022/08/24 15:47:32;;;;;;;6.20;4.50;;;;;;;;;;10241683;28;20062;-72
2022/08/24 15:52:52;;;;;;;4.63;4.18;;;;;;;;;;10237171;28;20075;-71
2022/08/24 15:57:53;;;;;;;4.80;4.03;;;;;;;;;;10225446;29;20037;-72
2022/08/24 16:02:53;;;;;;;5.40;4.83;;;;;;;;;;10247104;29;20403;-72
2022/08/24 16:08:00;;;;;;;5.10;4.57;;;;;;;;;;10216427;28;20289;-69
2022/08/24 16:13:13;;;;;;;4.30;3.90;;;;;;;;;;10224336;29;20055;-72
2022/08/24 16:18:14;;;;;;;5.60;4.80;;;;;;;;;;10245917;28;20040;-78
2022/08/24 16:23:23;;;;;;;5.78;5.03;;;;;;;;;;10224285;28;20046;-72
2022/08/24 16:28:24;;;;;;;4.90;4.40;;;;;;;;;;10242442;28;20403;-71
2022/08/24 16:33:33;;;;;;;7.40;5.60;;;;;;;;;;10229678;28;20039;-72
2022/08/24 16:38:37;;;;;;;6.82;4.80;;;;;;;;;;10248621;28;20197;-76
2022/08/24 16:43:39;;;;;;;4.85;4.25;;;;;;;;;;10247518;28;20039;-71
2022/08/24 16:48:41;;;;;;;4.60;4.20;;;;;;;;;;10238264;28;20062;-70
2022/08/24 16:53:41;;;;;;;5.13;4.63;;;;;;;;;;10254781;28;20045;-71
2022/08/24 16:58:42;;;;;;;6.13;4.40;;;;;;;;;;10218212;28;20066;-74
2022/08/24 17:03:42;;;;;;;4.57;4.10;;;;;;;;;;10241858;28;20047;-74
2022/08/24 17:08:43;;;;;;;6.07;5.47;;;;;;;;;;10238236;28;20063;-74
2022/08/24 17:13:43;;;;;;;6.90;5.20;;;;;;;;;;10231350;28;20043;-72
2022/08/24 17:18:43;;;;;;;5.50;4.87;;;;;;;;;;10239433;28;20039;-72
2022/08/24 17:23:44;;;;;;;5.60;5.00;;;;;;;;;;10232118;29;20056;-71
2022/08/24 17:28:46;;;;;;;6.10;5.50;;;;;;;;;;10231295;28;20673;-73
2022/08/24 17:33:46;;;;;;;5.82;5.22;;;;;;;;;;10247951;28;20047;-71
2022/08/24 17:38:48;;;;;;;10.30;6.05;;;;;;;;;;10219138;29;20114;-73
2022/08/24 17:43:49;;;;;;;7.78;6.25;;;;;;;;;;10243898;28;20027;-72
2022/08/24 17:48:50;;;;;;;10.00;8.43;;;;;;;;;;10224757;28;20455;-70
2022/08/24 17:53:50;;;;;;;7.32;6.20;;;;;;;;;;10237099;29;20042;-71
2022/08/24 18:04:10;;;;;;;8.23;6.45;;;;;;;;;;10233484;28;20134;-72
2022/08/24 18:09:14;;;;;;;7.28;6.18;;;;;;;;;;10235923;28;20395;-72
2022/08/24 18:14:15;;;;;;;6.82;5.63;;;;;;;;;;10231781;28;20039;-73
2022/08/24 18:19:15;;;;;;;8.20;6.20;;;;;;;;;;10212771;28;20398;-73
2022/08/24 18:24:16;;;;;;;6.60;5.90;;;;;;;;;;10217307;28;20048;-71
2022/08/24 18:29:18;;;;;;;7.13;6.22;;;;;;;;;;10229151;28;20059;-71
2022/08/24 18:34:19;;;;;;;;;;;;;;;;;;10226131;28;20071;-73
2022/08/24 18:39:20;;;;;;;6.82;6.15;;;;;;;;;;10241428;28;20361;-73
2022/08/24 18:44:21;;;;;;;7.05;6.15;;;;;;;;;;10236182;28;20032;-83
2022/08/24 18:49:22;;;;;;;6.40;5.80;;;;;;;;;;10236696;28;20047;-74
2022/08/24 18:54:24;;;;;;;7.10;6.40;;;;;;;;;;10246072;28;20035;-75
2022/08/24 18:59:25;;;;;;;7.15;6.38;;;;;;;;;;10231756;28;20298;-74
2022/08/24 19:04:25;;;;;;;10.00;7.65;;;;;;;;;;10244471;28;20055;-74
2022/08/24 19:09:25;;;;;;;8.57;7.13;;;;;;;;;;10233583;28;20031;-77
2022/08/24 19:14:26;;;;;;;8.80;7.63;;;;;;;;;;10228882;28;20039;-75
2022/08/24 19:19:26;;;;;;;9.00;8.10;;;;;;;;;;10240603;28;20050;-75
2022/08/24 19:24:27;;;;;;;7.60;6.80;;;;;;;;;;10238786;29;20789;-74
2022/08/24 19:29:29;;;;;;;8.90;7.07;;;;;;;;;;10237883;28;21112;-76
2022/08/24 19:34:30;;;;;;;8.13;6.93;;;;;;;;;;10255219;28;20588;-76
2022/08/24 19:39:30;;;;;;;9.23;7.50;;;;;;;;;;10281669;28;20047;-82
2022/08/24 19:49:50;;;;;;;9.38;8.00;;;;;;;;;;10236799;28;20382;-78
2022/08/24 19:54:50;;;;;;;9.23;7.40;;;;;;;;;;10234233;29;20027;-84
2022/08/24 19:59:51;;;;;;;9.82;8.32;;;;;;;;;;10253969;28;20047;-81
2022/08/24 20:04:52;;;;;;;9.10;7.35;;;;;;;;;;10246759;28;20198;-83
2022/08/24 20:09:54;;;;;;;8.93;8.02;;;;;;;;;;10231266;29;20062;-76
2022/08/24 20:14:55;;;;;;;8.98;7.47;;;;;;;;;;10244765;29;20051;-75
2022/08/24 20:19:56;;;;;;;10.20;8.27;;;;;;;;;;10254123;28;20115;-76
2022/08/24 20:24:56;;;;;;;13.05;10.20;;;;;;;;;;10221995;28;20079;-75
2022/08/24 20:29:58;;;;;;;11.60;9.70;;;;;;;;;;10236252;28;20051;-76
2022/08/24 20:34:59;;;;;;;9.52;7.93;;;;;;;;;;10225855;28;20466;-76
2022/08/24 20:40:00;;;;;;;11.30;8.73;;;;;;;;;;10225144;28;20051;-78
2022/08/24 20:45:01;;;;;;;12.45;8.15;;;;;;;;;;10239553;28;20427;-77
2022/08/24 20:50:01;;;;;;;9.93;8.00;;;;;;;;;;10236256;28;20402;-77
2022/08/24 20:55:03;;;;;;;8.75;7.85;;;;;;;;;;10243740;28;20749;-76
2022/08/24 21:00:05;;;;;;;9.88;8.27;;;;;;;;;;10234877;28;20417;-77
2022/08/24 21:05:06;;;;;;;10.18;8.35;;;;;;;;;;10206249;28;20066;-77
2022/08/24 21:10:07;;;;;;;11.90;9.93;;;;;;;;;;10220647;29;20043;-76
2022/08/24 21:15:07;;;;;;;12.73;10.68;;;;;;;;;;10219080;28;20049;-76
2022/08/24 21:20:09;;;;;;;12.43;9.70;;;;;;;;;;10231087;28;20039;-75
2022/08/24 21:25:10;;;;;;;13.48;9.95;;;;;;;;;;10220289;28;20110;-78
2022/08/24 21:30:13;;;;;;;11.38;9.90;;;;;;;;;;10233070;28;20101;-79
2022/08/24 21:35:14;;;;;;;12.32;9.63;;;;;;;;;;10254817;28;20058;-76
2022/08/24 21:40:15;;;;;;;10.82;9.15;;;;;;;;;;10270028;28;20035;-75
2022/08/24 21:45:17;;;;;;;11.43;9.38;;;;;;;;;;10231164;28;20145;-75
2022/08/24 21:50:18;;;;;;;13.10;10.50;;;;;;;;;;10203811;28;20054;-76
2022/08/24 21:55:19;;;;;;;11.30;10.13;;;;;;;;;;10231480;28;20035;-75
2022/08/24 22:00:20;;;;;;;12.55;10.30;;;;;;;;;;10228749;28;20114;-75
2022/08/24 22:05:20;;;;;;;12.25;10.40;;;;;;;;;;10231498;28;20771;-76
2022/08/24 22:10:21;;;;;;;13.03;10.63;;;;;;;;;;10235215;28;20372;-76
2022/08/24 22:15:21;;;;;;;13.25;10.95;;;;;;;;;;10242993;29;20321;-75
2022/08/24 22:20:22;;;;;;;13.48;11.13;;;;;;;;;;10230722;28;20043;-76
2022/08/24 22:25:22;;;;;;;11.43;10.20;;;;;;;;;;10233745;28;20735;-75
2022/08/24 22:30:22;;;;;;;12.53;10.53;;;;;;;;;;10219552;28;20303;-76
2022/08/24 22:35:23;;;;;;;14.93;11.67;;;;;;;;;;10242533;28;20310;-75
2022/08/24 22:40:24;;;;;;;14.13;11.35;;;;;;;;;;10255833;28;20620;-75
2022/08/24 22:45:24;;;;;;;12.45;10.70;;;;;;;;;;10238681;28;20561;-76
2022/08/24 22:50:25;;;;;;;12.88;10.23;;;;;;;;;;10241461;28;20027;-76
2022/08/24 22:55:28;;;;;;;14.18;10.98;;;;;;;;;;10229279;28;20050;-75
2022/08/24 23:00:29;;;;;;;12.38;10.32;;;;;;;;;;10221356;28;20051;-76
2022/08/24 23:05:29;;;;;;;16.80;10.60;;;;;;;;;;10216184;29;20054;-76
2022/08/24 23:10:29;;;;;;;15.27;10.63;;;;;;;;;;10229835;28;20432;-76
2022/08/24 23:15:30;;;;;;;12.43;10.10;;;;;;;;;;10235602;28;20129;-76
2022/08/24 23:20:30;;;;;;;12.30;9.82;;;;;;;;;;10235185;28;20590;-75
2022/08/24 23:25:31;;;;;;;11.23;9.30;;;;;;;;;;10232895;28;20555;-75
2022/08/24 23:30:31;;;;;;;13.90;10.67;;;;;;;;;;10218793;29;20074;-75
2022/08/24 23:35:32;;;;;;;13.00;10.43;;;;;;;;;;10243073;28;20290;-74
2022/08/24 23:40:32;;;;;;;10.87;9.73;;;;;;;;;;10241329;28;20772;-75
2022/08/24 23:45:35;;;;;;;11.77;10.20;;;;;;;;;;10238168;28;20328;-75
2022/08/24 23:50:36;;;;;;;11.98;9.18;;;;;;;;;;10236755;29;20471;-76
2022/08/24 23:55:36;;;;;;;13.63;9.63;;;;;;;;;;10237107;28;20050;-76
